Time,TemperatureF,DewpointF,PressureIn,WindDirection,WindDirectionDegrees,WindSpeedMPH,WindSpeedGustMPH,Humidity,HourlyPrecipIn,Conditions,Clouds,dailyrainin,SoftwareType,DateUTC
2013-07-07 00:04:00,69.8,69.5,29.88,SSW,202,3.7,-999.0,99,-99.99,,,0.00,Acu-Link.com,2013-07-07 04:04:00,
2013-07-07 00:20:00,69.8,69.5,29.88,SSW,202,2.7,-999.0,99,-99.99,,,0.00,Acu-Link.com,2013-07-07 04:20:00,
2013-07-07 00:35:00,69.6,69.3,29.88,ESE,112,1.7,-999.0,99,-99.99,,,0.00,Acu-Link.com,2013-07-07 04:35:00,
2013-07-07 00:50:00,69.3,69.0,29.88,South,180,4.2,-999.0,99,-99.99,,,0.00,Acu-Link.com,2013-07-07 04:50:00,
2013-07-07 01:05:00,69.3,69.0,29.88,SSW,202,4.7,-999.0,99,-99.99,,,0.00,Acu-Link.com,2013-07-07 05:05:00,
2013-07-07 01:20:00,69.4,69.1,29.87,SSW,202,3.7,-999.0,99,-99.99,,,0.00,Acu-Link.com,2013-07-07 05:20:00,
2013-07-07 01:36:00,69.4,69.1,29.87,SW,225,3.7,-999.0,99,-99.99,,,0.00,Acu-Link.com,2013-07-07 05:36:00,
2013-07-07 01:51:00,69.4,69.1,29.86,SW,225,2.2,-999.0,99,-99.99,,,0.00,Acu-Link.com,2013-07-07 05:51:00,
2013-07-07 02:06:00,69.3,69.0,29.85,ESE,112,4.7,-999.0,99,-99.99,,,0.01,Acu-Link.com,2013-07-07 06:06:00,
2013-07-07 02:21:00,69.3,69.0,29.85,WSW,247,1.1,-999.0,99,-99.99,,,0.01,Acu-Link.com,2013-07-07 06:21:00,
2013-07-07 02:36:00,69.1,68.8,29.85,SSW,202,5.8,-999.0,99,-99.99,,,0.02,Acu-Link.com,2013-07-07 06:36:00,
2013-07-07 02:51:00,68.9,68.6,29.84,SSW,202,2.7,-999.0,99,-99.99,,,0.03,Acu-Link.com,2013-07-07 06:51:00,
2013-07-07 03:07:00,68.7,68.4,29.85,SSW,202,3.7,-999.0,99,-99.99,,,0.03,Acu-Link.com,2013-07-07 07:07:00,
2013-07-07 03:22:00,68.7,68.4,29.85,SSW,202,3.2,-999.0,99,-99.99,,,0.03,Acu-Link.com,2013-07-07 07:22:00,
2013-07-07 03:37:00,68.2,67.9,29.85,SSW,202,4.7,-999.0,99,-99.99,,,0.03,Acu-Link.com,2013-07-07 07:37:00,
2013-07-07 03:52:00,68.2,67.9,29.85,SSW,202,3.2,-999.0,99,-99.99,,,0.04,Acu-Link.com,2013-07-07 07:52:00,
2013-07-07 04:08:00,68.2,67.9,29.85,SW,225,2.2,-999.0,99,-99.99,,,0.05,Acu-Link.com,2013-07-07 08:08:00,
2013-07-07 04:23:00,68.0,67.7,29.85,SSW,202,1.7,-999.0,99,-99.99,,,0.06,Acu-Link.com,2013-07-07 08:23:00,
2013-07-07 04:38:00,67.6,67.3,29.84,NE,45,0.0,-999.0,99,-99.99,,,0.09,Acu-Link.com,2013-07-07 08:38:00,
2013-07-07 04:54:00,67.3,67.0,29.86,NW,315,0.0,-999.0,99,-99.99,,,0.53,Acu-Link.com,2013-07-07 08:54:00,
2013-07-07 05:09:00,67.3,67.0,29.85,SW,225,0.0,-999.0,99,-99.99,,,0.62,Acu-Link.com,2013-07-07 09:09:00,
2013-07-07 05:24:00,67.5,67.2,29.85,SW,225,0.0,-999.0,99,-99.99,,,0.64,Acu-Link.com,2013-07-07 09:24:00,
2013-07-07 05:39:00,67.5,67.2,29.84,SW,225,0.0,-999.0,99,-99.99,,,0.67,Acu-Link.com,2013-07-07 09:39:00,
2013-07-07 05:54:00,67.5,67.2,29.84,NNW,337,0.0,-999.0,99,-99.99,,,0.69,Acu-Link.com,2013-07-07 09:54:00,
2013-07-07 06:09:00,67.5,67.2,29.84,SSW,202,1.1,-999.0,99,-99.99,,,1.01,Acu-Link.com,2013-07-07 10:09:00,
2013-07-07 06:25:00,67.6,67.3,29.85,SW,225,0.0,-999.0,99,-99.99,,,1.14,Acu-Link.com,2013-07-07 10:25:00,
2013-07-07 06:40:00,67.6,67.3,29.85,SSW,202,2.2,-999.0,99,-99.99,,,1.15,Acu-Link.com,2013-07-07 10:40:00,
2013-07-07 06:55:00,68.2,67.9,29.85,SW,225,1.1,-999.0,99,-99.99,,,1.16,Acu-Link.com,2013-07-07 10:55:00,
2013-07-07 07:10:00,68.0,67.7,29.85,SW,225,1.7,-999.0,99,-99.99,,,1.17,Acu-Link.com,2013-07-07 11:10:00,
2013-07-07 07:26:00,68.0,67.7,29.86,SSW,202,4.2,-999.0,99,-99.99,,,1.17,Acu-Link.com,2013-07-07 11:26:00,
2013-07-07 07:41:00,68.2,67.9,29.86,SSW,202,3.2,-999.0,99,-99.99,,,1.17,Acu-Link.com,2013-07-07 11:41:00,
2013-07-07 07:56:00,68.2,67.9,29.87,SSW,202,3.2,-999.0,99,-99.99,,,1.17,Acu-Link.com,2013-07-07 11:56:00,
2013-07-07 08:11:00,68.4,68.1,29.87,SSW,202,2.7,-999.0,99,-99.99,,,1.17,Acu-Link.com,2013-07-07 12:11:00,
2013-07-07 08:27:00,68.4,68.1,29.88,SSW,202,1.1,-999.0,99,-99.99,,,1.17,Acu-Link.com,2013-07-07 12:27:00,
2013-07-07 08:42:00,68.4,68.1,29.88,SSW,202,3.2,-999.0,99,-99.99,,,1.17,Acu-Link.com,2013-07-07 12:42:00,
2013-07-07 08:57:00,68.0,67.7,29.89,SSW,202,2.7,-999.0,99,-99.99,,,1.17,Acu-Link.com,2013-07-07 12:57:00,
2013-07-07 09:12:00,68.2,67.9,29.89,SSW,202,2.7,-999.0,99,-99.99,,,1.17,Acu-Link.com,2013-07-07 13:12:00,
2013-07-07 09:27:00,68.4,68.1,29.89,SSW,202,2.7,-999.0,99,-99.99,,,1.17,Acu-Link.com,2013-07-07 13:27:00,
2013-07-07 09:42:00,68.5,68.2,29.89,SSW,202,3.7,-999.0,99,-99.99,,,1.17,Acu-Link.com,2013-07-07 13:42:00,
2013-07-07 09:57:00,68.5,68.2,29.88,SSW,202,3.2,-999.0,99,-99.99,,,1.17,Acu-Link.com,2013-07-07 13:57:00,
2013-07-07 10:13:00,68.9,68.6,29.88,SW,225,2.7,-999.0,99,-99.99,,,1.17,Acu-Link.com,2013-07-07 14:13:00,
2013-07-07 10:28:00,68.7,68.4,29.88,SSW,202,3.7,-999.0,99,-99.99,,,1.17,Acu-Link.com,2013-07-07 14:28:00,
2013-07-07 10:43:00,69.1,68.8,29.88,SSW,202,2.2,-999.0,99,-99.99,,,1.17,Acu-Link.com,2013-07-07 14:43:00,
2013-07-07 10:58:00,69.3,69.0,29.88,SSW,202,3.7,-999.0,99,-99.99,,,1.17,Acu-Link.com,2013-07-07 14:58:00,
2013-07-07 11:13:00,69.4,69.1,29.88,SSW,202,2.2,-999.0,99,-99.99,,,1.17,Acu-Link.com,2013-07-07 15:13:00,
2013-07-07 11:28:00,70.2,69.9,29.88,SSW,202,4.7,-999.0,99,-99.99,,,1.17,Acu-Link.com,2013-07-07 15:28:00,
2013-07-07 11:43:00,70.9,70.6,29.88,SW,225,2.2,-999.0,99,-99.99,,,1.17,Acu-Link.com,2013-07-07 15:43:00,
2013-07-07 11:58:00,70.7,70.4,29.89,SSW,202,2.2,-999.0,99,-99.99,,,1.17,Acu-Link.com,2013-07-07 15:58:00,
2013-07-07 12:13:00,71.4,71.1,29.88,SSW,202,2.2,-999.0,99,-99.99,,,1.17,Acu-Link.com,2013-07-07 16:13:00,
2013-07-07 12:29:00,71.6,71.0,29.88,SW,225,1.7,-999.0,98,-99.99,,,1.17,Acu-Link.com,2013-07-07 16:29:00,
2013-07-07 12:44:00,71.4,71.1,29.88,SSW,202,1.1,-999.0,99,-99.99,,,1.17,Acu-Link.com,2013-07-07 16:44:00,
2013-07-07 13:00:00,71.8,71.5,29.88,WSW,247,2.7,-999.0,99,-99.99,,,1.17,Acu-Link.com,2013-07-07 17:00:00,
2013-07-07 13:15:00,72.5,71.9,29.88,SSW,202,4.7,-999.0,98,-99.99,,,1.17,Acu-Link.com,2013-07-07 17:15:00,
2013-07-07 13:30:00,72.3,70.8,29.87,SSW,202,3.2,-999.0,95,-99.99,,,1.17,Acu-Link.com,2013-07-07 17:30:00,
2013-07-07 13:45:00,73.2,71.7,29.87,SSW,202,6.3,-999.0,95,-99.99,,,1.17,Acu-Link.com,2013-07-07 17:45:00,
2013-07-07 14:01:00,72.9,71.1,29.87,SW,225,2.7,-999.0,94,-99.99,,,1.17,Acu-Link.com,2013-07-07 18:01:00,
2013-07-07 14:16:00,73.0,71.5,29.86,SW,225,5.3,-999.0,95,-99.99,,,1.17,Acu-Link.com,2013-07-07 18:16:00,
2013-07-07 14:31:00,73.2,71.4,29.86,SSW,202,3.7,-999.0,94,-99.99,,,1.17,Acu-Link.com,2013-07-07 18:31:00,
2013-07-07 14:47:00,73.6,70.8,29.85,WSW,247,3.7,-999.0,91,-99.99,,,1.17,Acu-Link.com,2013-07-07 18:47:00,
2013-07-07 15:02:00,73.9,71.1,29.85,SW,225,3.2,-999.0,91,-99.99,,,1.17,Acu-Link.com,2013-07-07 19:02:00,
2013-07-07 15:17:00,74.1,70.6,29.85,SSW,202,4.2,-999.0,89,-99.99,,,1.17,Acu-Link.com,2013-07-07 19:17:00,
2013-07-07 15:32:00,73.9,70.8,29.85,SSW,202,2.2,-999.0,90,-99.99,,,1.17,Acu-Link.com,2013-07-07 19:32:00,
2013-07-07 15:47:00,73.8,71.6,29.84,SW,225,2.7,-999.0,93,-99.99,,,1.17,Acu-Link.com,2013-07-07 19:47:00,
2013-07-07 16:02:00,73.9,71.1,29.83,SSW,202,2.7,-999.0,91,-99.99,,,1.17,Acu-Link.com,2013-07-07 20:02:00,
2013-07-07 16:18:00,73.9,71.4,29.83,South,180,5.3,-999.0,92,-99.99,,,1.17,Acu-Link.com,2013-07-07 20:18:00,
2013-07-07 16:33:00,73.0,71.2,29.83,SSW,202,3.7,-999.0,94,-99.99,,,1.17,Acu-Link.com,2013-07-07 20:33:00,
2013-07-07 16:48:00,72.5,71.0,29.83,SSW,202,3.2,-999.0,95,-99.99,,,1.17,Acu-Link.com,2013-07-07 20:48:00,
2013-07-07 17:03:00,72.3,71.4,29.83,SSW,202,2.7,-999.0,97,-99.99,,,1.17,Acu-Link.com,2013-07-07 21:03:00,
2013-07-07 17:19:00,71.6,71.3,29.82,SSW,202,2.7,-999.0,99,-99.99,,,1.17,Acu-Link.com,2013-07-07 21:19:00,
2013-07-07 17:34:00,71.6,71.3,29.82,SSW,202,3.7,-999.0,99,-99.99,,,1.17,Acu-Link.com,2013-07-07 21:34:00,
2013-07-07 17:49:00,71.4,71.1,29.81,SSW,202,2.2,-999.0,99,-99.99,,,1.17,Acu-Link.com,2013-07-07 21:49:00,
2013-07-07 18:04:00,71.4,69.9,29.80,SSW,202,2.7,-999.0,95,-99.99,,,1.17,Acu-Link.com,2013-07-07 22:04:00,
2013-07-07 18:19:00,71.1,69.6,29.81,SSW,202,3.2,-999.0,95,-99.99,,,1.17,Acu-Link.com,2013-07-07 22:19:00,
2013-07-07 18:35:00,71.1,69.6,29.81,SSW,202,2.2,-999.0,95,-99.99,,,1.17,Acu-Link.com,2013-07-07 22:35:00,
2013-07-07 18:50:00,71.1,69.3,29.81,SSW,202,2.7,-999.0,94,-99.99,,,1.17,Acu-Link.com,2013-07-07 22:50:00,
2013-07-07 19:05:00,71.4,69.6,29.82,SSW,202,3.7,-999.0,94,-99.99,,,1.17,Acu-Link.com,2013-07-07 23:05:00,
2013-07-07 19:20:00,71.8,69.3,29.82,SSW,202,3.7,-999.0,92,-99.99,,,1.17,Acu-Link.com,2013-07-07 23:20:00,
2013-07-07 19:35:00,71.8,69.7,29.83,SW,225,2.7,-999.0,93,-99.99,,,1.17,Acu-Link.com,2013-07-07 23:35:00,
2013-07-07 19:50:00,72.0,69.5,29.82,SSW,202,4.2,-999.0,92,-99.99,,,1.17,Acu-Link.com,2013-07-07 23:50:00,
2013-07-07 20:06:00,72.0,69.5,29.83,SW,225,3.2,-999.0,92,-99.99,,,1.17,Acu-Link.com,2013-07-08 00:06:00,
2013-07-07 20:21:00,71.6,69.8,29.83,SSW,202,3.2,-999.0,94,-99.99,,,1.17,Acu-Link.com,2013-07-08 00:21:00,
2013-07-07 20:36:00,71.4,69.9,29.83,SW,225,2.7,-999.0,95,-99.99,,,1.17,Acu-Link.com,2013-07-08 00:36:00,
2013-07-07 20:51:00,71.1,69.9,29.84,SW,225,2.7,-999.0,96,-99.99,,,1.17,Acu-Link.com,2013-07-08 00:51:00,
2013-07-07 21:07:00,70.9,70.3,29.84,SW,225,3.2,-999.0,98,-99.99,,,1.17,Acu-Link.com,2013-07-08 01:07:00,
2013-07-07 21:22:00,70.5,70.2,29.84,SSW,202,2.7,-999.0,99,-99.99,,,1.17,Acu-Link.com,2013-07-08 01:22:00,
2013-07-07 21:37:00,70.0,69.7,29.85,SW,225,3.2,-999.0,99,-99.99,,,1.17,Acu-Link.com,2013-07-08 01:37:00,
2013-07-07 21:52:00,69.6,69.3,29.86,SSW,202,3.2,-999.0,99,-99.99,,,1.17,Acu-Link.com,2013-07-08 01:52:00,
2013-07-07 22:07:00,69.4,69.1,29.86,SSW,202,2.2,-999.0,99,-99.99,,,1.17,Acu-Link.com,2013-07-08 02:07:00,
2013-07-07 22:23:00,69.1,68.8,29.86,SW,225,0.0,-999.0,99,-99.99,,,1.17,Acu-Link.com,2013-07-08 02:23:00,
2013-07-07 22:38:00,68.9,68.6,29.87,SW,225,0.0,-999.0,99,-99.99,,,1.17,Acu-Link.com,2013-07-08 02:38:00,
2013-07-07 22:53:00,68.9,68.6,29.87,SSW,202,0.0,-999.0,99,-99.99,,,1.17,Acu-Link.com,2013-07-08 02:53:00,
2013-07-07 23:08:00,68.9,68.6,29.88,WSW,247,0.0,-999.0,99,-99.99,,,1.17,Acu-Link.com,2013-07-08 03:08:00,
2013-07-07 23:23:00,68.9,68.6,29.88,SW,225,0.0,-999.0,99,-99.99,,,1.17,Acu-Link.com,2013-07-08 03:23:00,
2013-07-07 23:38:00,68.9,68.6,29.88,SW,225,2.2,-999.0,99,-99.99,,,1.17,Acu-Link.com,2013-07-08 03:38:00,
2013-07-07 23:54:00,69.1,68.8,29.87,SW,225,1.7,-999.0,99,-99.99,,,1.17,Acu-Link.com,2013-07-08 03:54:00,